createdAt,value
2022-08-04T00:02:04.429Z,55.19
2022-08-04T00:07:17.849Z,54.05
2022-08-04T00:12:31.477Z,54.83
2022-08-04T00:17:40.783Z,56.98
2022-08-04T00:22:50.154Z,56.12
2022-08-04T00:27:53.265Z,54.98
2022-08-04T00:32:58.270Z,57.79
2022-08-04T00:38:06.764Z,57.71
2022-08-04T00:43:17.949Z,56.01
2022-08-04T00:48:33.046Z,55.79
2022-08-04T00:53:56.139Z,55.38
2022-08-04T00:59:05.229Z,56.15
2022-08-04T01:04:22.022Z,56.95
2022-08-04T01:09:45.161Z,57.98
2022-08-04T01:15:15.359Z,55.28
2022-08-04T01:26:15.285Z,54.82
2022-08-04T01:31:36.326Z,54.37
2022-08-04T01:36:50.104Z,56.18
2022-08-04T01:41:58.404Z,56.94
2022-08-04T01:52:28.884Z,54.76
2022-08-04T01:57:38.153Z,58.77
2022-08-04T02:08:18.922Z,56.50
2022-08-04T02:13:28.139Z,57.11
2022-08-04T02:18:34.225Z,60.04
2022-08-04T02:23:42.700Z,60.79
2022-08-04T02:28:49.593Z,59.05
2022-08-04T02:34:02.784Z,61.01
2022-08-04T02:39:12.443Z,58.58
2022-08-04T02:44:19.300Z,59.11
2022-08-04T02:49:23.876Z,60.27
2022-08-04T02:54:39.753Z,59.69
2022-08-04T02:59:55.011Z,57.21
2022-08-04T03:05:01.739Z,57.86
2022-08-04T03:10:43.543Z,59.97
2022-08-04T03:16:04.379Z,57.80
2022-08-04T03:21:37.360Z,58.92
2022-08-04T03:27:07.168Z,57.56
2022-08-04T03:32:51.033Z,56.94
2022-08-04T03:38:18.219Z,57.03
2022-08-04T03:44:00.470Z,58.08
2022-08-04T03:49:37.131Z,57.81
2022-08-04T03:54:59.713Z,57.67
2022-08-04T04:06:00.165Z,56.91
2022-08-04T04:11:31.258Z,57.89
2022-08-04T04:16:56.806Z,57.84
2022-08-04T04:22:19.071Z,58.12
2022-08-04T04:27:34.863Z,57.88
2022-08-04T04:33:00.729Z,59.16
2022-08-04T04:38:46.015Z,59.54
2022-08-04T04:44:05.697Z,57.03
2022-08-04T04:49:18.533Z,57.58
2022-08-04T04:54:35.634Z,58.95
2022-08-04T04:59:45.364Z,57.07
2022-08-04T05:05:16.567Z,58.46
2022-08-04T05:10:40.754Z,55.94
2022-08-04T05:21:15.389Z,55.46
2022-08-04T05:26:24.604Z,54.98
2022-08-04T05:31:30.372Z,55.60
2022-08-04T05:36:42.120Z,55.07
2022-08-04T05:41:48.079Z,53.63
2022-08-04T05:47:00.612Z,53.87
2022-08-04T05:52:10.857Z,53.72
2022-08-04T05:57:14.720Z,52.57
2022-08-04T06:02:20.609Z,52.41
2022-08-04T06:07:28.959Z,52.04
2022-08-04T06:12:37.961Z,50.90
2022-08-04T06:18:32.976Z,49.86
2022-08-04T06:23:16.915Z,48.77
2022-08-04T06:28:21.026Z,48.59
2022-08-04T06:33:24.595Z,47.63
2022-08-04T06:38:34.544Z,46.42
2022-08-04T06:43:43.062Z,45.93
2022-08-04T06:48:47.766Z,44.85
2022-08-04T06:53:56.196Z,43.62
2022-08-04T06:59:02.144Z,43.55
2022-08-04T07:04:06.289Z,42.34
2022-08-04T07:09:14.456Z,40.40
2022-08-04T07:14:18.682Z,42.08
2022-08-04T07:19:21.388Z,39.09
2022-08-04T07:29:42.882Z,40.85
2022-08-04T07:34:49.791Z,39.43
2022-08-04T07:39:53.025Z,36.44
2022-08-04T07:45:01.646Z,35.13
2022-08-04T07:55:24.050Z,36.89
2022-08-04T08:00:26.861Z,35.01
2022-08-04T08:05:30.068Z,33.09
2022-08-04T08:10:38.992Z,33.07
2022-08-04T08:15:42.634Z,34.89
2022-08-04T08:20:46.513Z,31.50
2022-08-04T08:25:55.421Z,30.87
2022-08-04T08:30:59.439Z,32.56
2022-08-04T08:41:52.145Z,32.63
2022-08-04T08:47:08.587Z,31.05
2022-08-04T08:52:57.288Z,31.25
2022-08-04T08:58:08.360Z,30.98
2022-08-04T09:03:39.561Z,31.22
2022-08-04T09:09:15.910Z,30.38
2022-08-04T09:14:32.833Z,30.61
2022-08-04T09:19:43.467Z,28.63
2022-08-04T09:24:55.166Z,27.98
2022-08-04T09:30:08.393Z,27.08
2022-08-04T09:35:34.743Z,27.20
2022-08-04T09:40:53.159Z,28.53
2022-08-04T09:51:56.878Z,28.23
2022-08-04T09:57:11.944Z,27.24
2022-08-04T10:02:20.154Z,26.01
2022-08-04T10:07:59.731Z,24.58
2022-08-04T10:13:26.935Z,27.80
2022-08-04T10:18:45.082Z,27.21
2022-08-04T10:24:06.580Z,26.83
2022-08-04T10:29:15.488Z,25.15
2022-08-04T10:34:22.549Z,24.12
2022-08-04T10:39:43.993Z,22.51
2022-08-04T10:44:57.823Z,25.30
2022-08-04T10:50:03.828Z,24.35
2022-08-04T10:55:18.270Z,22.02
2022-08-04T11:00:25.606Z,23.67
2022-08-04T11:05:43.817Z,22.30
2022-08-04T11:10:58.543Z,22.81
2022-08-04T11:16:05.072Z,23.37
2022-08-04T11:21:13.939Z,21.68
2022-08-04T11:26:30.745Z,22.07
2022-08-04T11:31:36.872Z,22.70
2022-08-04T11:36:47.458Z,19.35
2022-08-04T11:41:59.353Z,21.16
2022-08-04T11:47:05.925Z,21.40
2022-08-04T11:52:11.676Z,20.85
2022-08-04T11:57:20.187Z,19.42
2022-08-04T12:02:42.941Z,20.17
2022-08-04T12:07:56.493Z,21.41
2022-08-04T12:13:14.684Z,20.05
2022-08-04T12:18:24.639Z,21.22
2022-08-04T12:23:34.438Z,19.47
2022-08-04T12:29:08.962Z,19.72
2022-08-04T12:34:14.016Z,20.73
2022-08-04T12:50:03.091Z,21.84
2022-08-04T13:05:55.789Z,18.71
2022-08-04T13:10:59.747Z,19.71
2022-08-04T13:16:05.271Z,17.69
2022-08-04T13:21:22.888Z,17.80
2022-08-04T13:26:56.490Z,19.32
2022-08-04T13:32:00.935Z,19.79
2022-08-04T13:37:10.756Z,17.93
2022-08-04T13:42:26.305Z,18.92
2022-08-04T13:47:32.555Z,18.24
2022-08-04T13:52:41.680Z,18.25
2022-08-04T13:57:47.008Z,19.70
2022-08-04T14:02:53.492Z,18.35
2022-08-04T14:08:08.546Z,19.55
2022-08-04T14:13:11.536Z,21.25
2022-08-04T14:18:21.933Z,19.20
2022-08-04T14:23:31.757Z,20.46
2022-08-04T14:29:09.843Z,19.93
2022-08-04T14:34:04.126Z,18.31
2022-08-04T14:39:13.523Z,17.92
2022-08-04T14:44:17.066Z,19.80
2022-08-04T14:49:20.138Z,18.96
2022-08-04T14:54:34.810Z,18.06
2022-08-04T14:59:58.867Z,21.23
2022-08-04T15:15:43.499Z,20.39
2022-08-04T15:26:37.814Z,19.99
2022-08-04T15:32:06.494Z,20.09
2022-08-04T15:37:08.089Z,19.34
2022-08-04T15:42:25.195Z,17.57
2022-08-04T15:47:28.177Z,20.01
2022-08-04T15:52:31.950Z,17.79
2022-08-04T15:58:06.050Z,17.26
2022-08-04T16:04:00.278Z,20.22
2022-08-04T16:09:05.904Z,20.58
2022-08-04T16:14:09.723Z,17.85
2022-08-04T16:19:34.964Z,18.30
2022-08-04T16:24:39.255Z,19.85
2022-08-04T16:29:42.988Z,18.02
2022-08-04T16:34:56.272Z,17.86
2022-08-04T16:40:29.818Z,19.68
2022-08-04T16:45:45.010Z,19.82
2022-08-04T16:50:56.107Z,19.15
2022-08-04T16:55:58.857Z,20.00
2022-08-04T17:01:08.791Z,20.66
2022-08-04T17:06:18.444Z,21.66
2022-08-04T17:16:42.657Z,23.40
2022-08-04T17:21:45.741Z,23.39
2022-08-04T17:26:54.045Z,23.42
2022-08-04T17:32:03.101Z,23.87
2022-08-04T17:42:30.352Z,25.96
2022-08-04T17:47:50.065Z,25.84
2022-08-04T17:53:01.225Z,26.07
2022-08-04T17:58:20.614Z,26.50
2022-08-04T18:03:30.329Z,26.79
2022-08-04T18:08:39.958Z,27.22
2022-08-04T18:13:44.590Z,28.67
2022-08-04T18:19:09.169Z,28.44
2022-08-04T18:24:11.954Z,28.10
2022-08-04T18:29:31.293Z,29.99
2022-08-04T18:34:40.874Z,30.04
2022-08-04T18:40:10.204Z,29.74
2022-08-04T18:45:20.711Z,31.29
2022-08-04T18:50:59.138Z,30.56
2022-08-04T18:55:56.489Z,30.45
2022-08-04T19:01:01.288Z,31.30
2022-08-04T19:06:09.802Z,31.33
2022-08-04T19:11:37.355Z,30.99
2022-08-04T19:16:35.739Z,31.41
2022-08-04T19:21:59.321Z,31.63
2022-08-04T19:27:07.073Z,31.69
2022-08-04T19:32:14.525Z,32.66
2022-08-04T19:42:46.803Z,35.34
2022-08-04T19:48:21.981Z,38.77
2022-08-04T19:53:37.306Z,39.87
2022-08-04T19:58:40.951Z,40.30
2022-08-04T20:04:09.835Z,41.78
2022-08-04T20:09:26.313Z,42.39
2022-08-04T20:14:32.639Z,40.92
2022-08-04T20:19:36.285Z,46.04
2022-08-04T20:24:52.044Z,45.36
2022-08-04T20:30:14.004Z,43.22
2022-08-04T20:35:21.776Z,46.65
2022-08-04T20:45:56.355Z,42.40
2022-08-04T20:51:01.756Z,44.61
2022-08-04T20:56:04.696Z,47.43
2022-08-04T21:01:14.825Z,47.43
2022-08-04T21:06:19.112Z,45.38
2022-08-04T21:11:23.588Z,48.25
2022-08-04T21:16:55.503Z,47.90
2022-08-04T21:21:55.512Z,45.86
2022-08-04T21:26:58.397Z,48.60
2022-08-04T21:32:08.261Z,49.11
2022-08-04T21:37:58.126Z,45.22
2022-08-04T21:42:53.621Z,47.54
2022-08-04T21:47:56.578Z,50.34
2022-08-04T21:58:26.834Z,46.56
2022-08-04T22:03:53.000Z,48.70
2022-08-04T22:08:57.639Z,51.78
2022-08-04T22:14:11.189Z,52.75
2022-08-04T22:19:14.529Z,49.25
2022-08-04T22:24:26.798Z,51.74
2022-08-04T22:29:39.356Z,53.60
2022-08-04T22:34:53.256Z,51.24
2022-08-04T22:39:57.216Z,54.57
2022-08-04T22:45:07.920Z,55.41
2022-08-04T22:50:27.462Z,52.45
2022-08-04T22:56:07.162Z,55.67
2022-08-04T23:00:58.981Z,55.90
2022-08-04T23:06:04.481Z,52.53
2022-08-04T23:11:09.214Z,54.56
2022-08-04T23:16:17.841Z,54.85
2022-08-04T23:21:24.036Z,52.77
2022-08-04T23:26:28.295Z,55.57
2022-08-04T23:31:40.399Z,56.91
2022-08-04T23:36:44.390Z,52.88
2022-08-04T23:41:51.404Z,56.51
2022-08-04T23:47:05.591Z,57.09
2022-08-04T23:52:09.812Z,54.11
2022-08-04T23:58:02.176Z,57.86
